sensor_id;sensor_type;location;lat;lon;timestamp;pressure;altitude;pressure_sealevel;temperature;humidity
67987;BME280;54767;53.800;15.956;2022-12-18T00:03:50;101812.30;;;-6.44;69.17
67987;BME280;54767;53.800;15.956;2022-12-18T00:06:19;101810.45;;;-6.43;69.04
67987;BME280;54767;53.800;15.956;2022-12-18T00:08:46;101811.77;;;-6.42;69.09
67987;BME280;54767;53.800;15.956;2022-12-18T00:11:16;101808.27;;;-6.41;68.92
67987;BME280;54767;53.800;15.956;2022-12-18T00:13:43;101819.02;;;-6.41;68.93
67987;BME280;54767;53.800;15.956;2022-12-18T00:16:14;101825.16;;;-6.41;68.84
67987;BME280;54767;53.800;15.956;2022-12-18T00:18:42;101822.77;;;-6.41;68.68
67987;BME280;54767;53.800;15.956;2022-12-18T00:21:10;101825.79;;;-6.43;68.48
67987;BME280;54767;53.800;15.956;2022-12-18T00:23:39;101827.54;;;-6.46;68.66
67987;BME280;54767;53.800;15.956;2022-12-18T00:26:11;101825.87;;;-6.50;68.60
67987;BME280;54767;53.800;15.956;2022-12-18T00:28:38;101826.48;;;-6.52;68.55
67987;BME280;54767;53.800;15.956;2022-12-18T00:31:09;101834.80;;;-6.54;68.47
67987;BME280;54767;53.800;15.956;2022-12-18T00:33:37;101835.15;;;-6.56;68.53
67987;BME280;54767;53.800;15.956;2022-12-18T00:36:09;101838.70;;;-6.56;68.39
67987;BME280;54767;53.800;15.956;2022-12-18T00:38:36;101839.86;;;-6.60;68.36
67987;BME280;54767;53.800;15.956;2022-12-18T00:41:04;101841.17;;;-6.60;68.28
67987;BME280;54767;53.800;15.956;2022-12-18T00:43:36;101842.54;;;-6.62;68.19
67987;BME280;54767;53.800;15.956;2022-12-18T00:46:03;101846.96;;;-6.64;68.14
67987;BME280;54767;53.800;15.956;2022-12-18T00:48:31;101849.20;;;-6.66;68.04
67987;BME280;54767;53.800;15.956;2022-12-18T00:50:58;101850.85;;;-6.68;68.01
67987;BME280;54767;53.800;15.956;2022-12-18T00:53:25;101850.58;;;-6.69;68.09
67987;BME280;54767;53.800;15.956;2022-12-18T00:55:52;101852.78;;;-6.71;67.94
67987;BME280;54767;53.800;15.956;2022-12-18T00:58:19;101852.94;;;-6.71;68.01
67987;BME280;54767;53.800;15.956;2022-12-18T01:00:45;101859.85;;;-6.73;67.83
67987;BME280;54767;53.800;15.956;2022-12-18T01:03:13;101862.21;;;-6.73;67.84
67987;BME280;54767;53.800;15.956;2022-12-18T01:05:42;101865.79;;;-6.75;67.83
67987;BME280;54767;53.800;15.956;2022-12-18T01:08:09;101865.50;;;-6.77;67.72
67987;BME280;54767;53.800;15.956;2022-12-18T01:10:36;101871.23;;;-6.79;67.81
67987;BME280;54767;53.800;15.956;2022-12-18T01:13:03;101870.56;;;-6.80;67.77
67987;BME280;54767;53.800;15.956;2022-12-18T01:15:29;101868.03;;;-6.82;67.79
67987;BME280;54767;53.800;15.956;2022-12-18T01:17:56;101870.81;;;-6.85;67.81
67987;BME280;54767;53.800;15.956;2022-12-18T01:20:23;101871.69;;;-6.88;67.78
67987;BME280;54767;53.800;15.956;2022-12-18T01:22:50;101864.79;;;-6.91;67.86
67987;BME280;54767;53.800;15.956;2022-12-18T01:25:17;101863.91;;;-6.93;67.74
67987;BME280;54767;53.800;15.956;2022-12-18T01:27:43;101866.38;;;-6.94;67.66
67987;BME280;54767;53.800;15.956;2022-12-18T01:30:10;101861.54;;;-6.95;67.67
67987;BME280;54767;53.800;15.956;2022-12-18T01:32:37;101860.51;;;-6.95;67.55
67987;BME280;54767;53.800;15.956;2022-12-18T01:35:05;101858.54;;;-6.96;67.46
67987;BME280;54767;53.800;15.956;2022-12-18T01:37:32;101858.98;;;-6.96;67.49
67987;BME280;54767;53.800;15.956;2022-12-18T01:39:59;101858.35;;;-6.97;67.36
67987;BME280;54767;53.800;15.956;2022-12-18T01:42:25;101850.61;;;-6.98;67.33
67987;BME280;54767;53.800;15.956;2022-12-18T01:49:54;101867.22;;;-7.01;66.98
67987;BME280;54767;53.800;15.956;2022-12-18T01:52:22;101874.97;;;-7.01;67.11
67987;BME280;54767;53.800;15.956;2022-12-18T01:54:52;101875.23;;;-6.99;67.09
67987;BME280;54767;53.800;15.956;2022-12-18T01:57:20;101876.54;;;-6.97;66.88
67987;BME280;54767;53.800;15.956;2022-12-18T01:59:52;101876.35;;;-7.00;66.93
67987;BME280;54767;53.800;15.956;2022-12-18T02:02:20;101876.89;;;-7.03;66.72
67987;BME280;54767;53.800;15.956;2022-12-18T02:04:48;101883.42;;;-7.06;66.77
67987;BME280;54767;53.800;15.956;2022-12-18T02:07:42;101883.88;;;-7.07;66.64
67987;BME280;54767;53.800;15.956;2022-12-18T02:15:39;101885.04;;;-7.12;66.50
67987;BME280;54767;53.800;15.956;2022-12-18T02:18:12;101885.92;;;-7.15;66.48
67987;BME280;54767;53.800;15.956;2022-12-18T02:20:47;101884.33;;;-7.17;66.45
67987;BME280;54767;53.800;15.956;2022-12-18T02:26:26;101886.39;;;-7.18;66.43
67987;BME280;54767;53.800;15.956;2022-12-18T02:29:00;101894.41;;;-7.15;66.57
67987;BME280;54767;53.800;15.956;2022-12-18T02:31:33;101892.84;;;-7.12;66.46
67987;BME280;54767;53.800;15.956;2022-12-18T02:34:04;101894.84;;;-7.13;66.20
67987;BME280;54767;53.800;15.956;2022-12-18T02:36:34;101896.39;;;-7.16;66.17
67987;BME280;54767;53.800;15.956;2022-12-18T02:39:04;101895.19;;;-7.19;66.05
67987;BME280;54767;53.800;15.956;2022-12-18T02:41:34;101898.34;;;-7.22;66.14
67987;BME280;54767;53.800;15.956;2022-12-18T02:44:08;101902.69;;;-7.24;65.95
67987;BME280;54767;53.800;15.956;2022-12-18T02:46:39;101899.75;;;-7.27;66.02
67987;BME280;54767;53.800;15.956;2022-12-18T02:49:20;101901.63;;;-7.28;66.02
67987;BME280;54767;53.800;15.956;2022-12-18T03:00:28;101897.94;;;-7.39;65.88
67987;BME280;54767;53.800;15.956;2022-12-18T03:03:09;101897.10;;;-7.41;65.87
67987;BME280;54767;53.800;15.956;2022-12-18T03:05:44;101901.22;;;-7.41;65.80
67987;BME280;54767;53.800;15.956;2022-12-18T03:08:25;101902.95;;;-7.42;65.76
67987;BME280;54767;53.800;15.956;2022-12-18T03:11:05;101906.04;;;-7.45;65.72
67987;BME280;54767;53.800;15.956;2022-12-18T03:13:36;101902.52;;;-7.46;65.66
67987;BME280;54767;53.800;15.956;2022-12-18T03:16:10;101906.85;;;-7.45;65.58
67987;BME280;54767;53.800;15.956;2022-12-18T03:18:46;101904.84;;;-7.45;65.61
67987;BME280;54767;53.800;15.956;2022-12-18T03:21:26;101905.73;;;-7.46;65.58
67987;BME280;54767;53.800;15.956;2022-12-18T03:23:55;101907.50;;;-7.48;65.70
67987;BME280;54767;53.800;15.956;2022-12-18T03:26:26;101919.20;;;-7.46;65.55
67987;BME280;54767;53.800;15.956;2022-12-18T03:29:03;101926.40;;;-7.47;65.34
67987;BME280;54767;53.800;15.956;2022-12-18T03:31:32;101925.71;;;-7.49;65.34
67987;BME280;54767;53.800;15.956;2022-12-18T03:34:01;101928.86;;;-7.52;65.21
67987;BME280;54767;53.800;15.956;2022-12-18T03:36:30;101925.14;;;-7.52;65.15
67987;BME280;54767;53.800;15.956;2022-12-18T03:38:58;101923.59;;;-7.53;65.17
67987;BME280;54767;53.800;15.956;2022-12-18T03:41:35;101927.01;;;-7.56;65.07
67987;BME280;54767;53.800;15.956;2022-12-18T03:44:17;101934.89;;;-7.59;65.05
67987;BME280;54767;53.800;15.956;2022-12-18T03:49:26;101945.79;;;-7.64;65.05
67987;BME280;54767;53.800;15.956;2022-12-18T03:52:03;101942.67;;;-7.66;65.17
67987;BME280;54767;53.800;15.956;2022-12-18T03:54:32;101951.84;;;-7.65;65.22
67987;BME280;54767;53.800;15.956;2022-12-18T03:57:21;101953.19;;;-7.65;65.08
67987;BME280;54767;53.800;15.956;2022-12-18T03:59:52;101950.08;;;-7.67;65.10
67987;BME280;54767;53.800;15.956;2022-12-18T04:02:22;101950.86;;;-7.71;65.09
67987;BME280;54767;53.800;15.956;2022-12-18T04:04:52;101952.45;;;-7.74;65.03
67987;BME280;54767;53.800;15.956;2022-12-18T04:07:20;101948.91;;;-7.78;64.94
67987;BME280;54767;53.800;15.956;2022-12-18T04:09:48;101949.40;;;-7.82;65.08
67987;BME280;54767;53.800;15.956;2022-12-18T04:12:17;101948.61;;;-7.85;65.23
67987;BME280;54767;53.800;15.956;2022-12-18T04:14:44;101951.34;;;-7.86;65.22
67987;BME280;54767;53.800;15.956;2022-12-18T04:17:12;101952.35;;;-7.88;65.34
67987;BME280;54767;53.800;15.956;2022-12-18T04:19:39;101960.81;;;-7.90;65.28
67987;BME280;54767;53.800;15.956;2022-12-18T04:22:09;101960.52;;;-7.91;65.26
67987;BME280;54767;53.800;15.956;2022-12-18T04:24:37;101966.96;;;-7.91;65.28
67987;BME280;54767;53.800;15.956;2022-12-18T04:27:04;101962.82;;;-7.94;65.17
67987;BME280;54767;53.800;15.956;2022-12-18T04:29:32;101962.17;;;-7.95;65.26
67987;BME280;54767;53.800;15.956;2022-12-18T04:31:59;101961.98;;;-7.97;65.17
67987;BME280;54767;53.800;15.956;2022-12-18T04:34:26;101962.23;;;-7.99;65.06
67987;BME280;54767;53.800;15.956;2022-12-18T04:36:53;101971.92;;;-8.04;64.97
67987;BME280;54767;53.800;15.956;2022-12-18T04:39:19;101971.14;;;-8.09;65.11
67987;BME280;54767;53.800;15.956;2022-12-18T04:41:46;101967.32;;;-8.13;65.06
67987;BME280;54767;53.800;15.956;2022-12-18T04:44:13;101973.03;;;-8.16;65.13
67987;BME280;54767;53.800;15.956;2022-12-18T04:46:40;101973.58;;;-8.19;65.30
67987;BME280;54767;53.800;15.956;2022-12-18T04:49:07;101975.97;;;-8.21;65.31
67987;BME280;54767;53.800;15.956;2022-12-18T04:51:34;101977.45;;;-8.23;65.32
67987;BME280;54767;53.800;15.956;2022-12-18T04:54:00;101982.39;;;-8.23;65.38
67987;BME280;54767;53.800;15.956;2022-12-18T04:56:27;101978.44;;;-8.23;65.38
67987;BME280;54767;53.800;15.956;2022-12-18T04:58:54;101980.02;;;-8.24;65.40
67987;BME280;54767;53.800;15.956;2022-12-18T05:01:21;101982.16;;;-8.25;65.45
67987;BME280;54767;53.800;15.956;2022-12-18T05:03:48;101985.52;;;-8.25;65.35
67987;BME280;54767;53.800;15.956;2022-12-18T05:06:15;101987.73;;;-8.25;65.40
67987;BME280;54767;53.800;15.956;2022-12-18T05:08:41;101987.44;;;-8.25;65.33
67987;BME280;54767;53.800;15.956;2022-12-18T05:11:11;101985.27;;;-8.25;65.38
67987;BME280;54767;53.800;15.956;2022-12-18T05:13:38;101983.65;;;-8.24;65.41
67987;BME280;54767;53.800;15.956;2022-12-18T05:16:07;101979.63;;;-8.25;65.33
67987;BME280;54767;53.800;15.956;2022-12-18T05:18:35;101979.98;;;-8.26;65.29
67987;BME280;54767;53.800;15.956;2022-12-18T05:21:02;101987.29;;;-8.26;65.32
67987;BME280;54767;53.800;15.956;2022-12-18T05:23:30;101998.40;;;-8.26;65.25
67987;BME280;54767;53.800;15.956;2022-12-18T05:25:58;102003.98;;;-8.24;65.33
67987;BME280;54767;53.800;15.956;2022-12-18T05:28:28;102001.94;;;-8.21;65.24
67987;BME280;54767;53.800;15.956;2022-12-18T05:30:57;102004.77;;;-8.20;65.15
67987;BME280;54767;53.800;15.956;2022-12-18T05:33:26;102001.12;;;-8.21;65.00
67987;BME280;54767;53.800;15.956;2022-12-18T05:35:58;102000.39;;;-8.21;65.04
67987;BME280;54767;53.800;15.956;2022-12-18T05:38:26;102003.95;;;-8.22;64.94
67987;BME280;54767;53.800;15.956;2022-12-18T05:40:53;102006.89;;;-8.22;64.99
67987;BME280;54767;53.800;15.956;2022-12-18T05:43:21;102008.84;;;-8.22;64.95
67987;BME280;54767;53.800;15.956;2022-12-18T05:45:49;102006.77;;;-8.22;64.97
67987;BME280;54767;53.800;15.956;2022-12-18T05:48:16;102009.91;;;-8.21;64.86
67987;BME280;54767;53.800;15.956;2022-12-18T05:50:45;102009.09;;;-8.19;64.99
67987;BME280;54767;53.800;15.956;2022-12-18T05:53:14;102013.33;;;-8.18;64.93
67987;BME280;54767;53.800;15.956;2022-12-18T05:55:42;102008.58;;;-8.16;64.96
67987;BME280;54767;53.800;15.956;2022-12-18T05:58:11;102008.02;;;-8.15;64.85
67987;BME280;54767;53.800;15.956;2022-12-18T06:00:41;102010.71;;;-8.15;64.76
67987;BME280;54767;53.800;15.956;2022-12-18T06:03:09;102016.33;;;-8.16;64.74
67987;BME280;54767;53.800;15.956;2022-12-18T06:05:39;102021.50;;;-8.19;64.63
67987;BME280;54767;53.800;15.956;2022-12-18T06:08:06;102034.02;;;-8.23;64.79
67987;BME280;54767;53.800;15.956;2022-12-18T06:10:33;102038.53;;;-8.25;64.93
67987;BME280;54767;53.800;15.956;2022-12-18T06:13:00;102040.86;;;-8.26;64.92
67987;BME280;54767;53.800;15.956;2022-12-18T06:15:27;102033.73;;;-8.24;65.05
67987;BME280;54767;53.800;15.956;2022-12-18T06:17:54;102026.54;;;-8.23;64.97
67987;BME280;54767;53.800;15.956;2022-12-18T06:20:21;102028.20;;;-8.22;65.08
67987;BME280;54767;53.800;15.956;2022-12-18T06:22:48;102045.94;;;-8.21;65.01
67987;BME280;54767;53.800;15.956;2022-12-18T06:25:15;102053.20;;;-8.21;64.98
67987;BME280;54767;53.800;15.956;2022-12-18T06:27:42;102064.54;;;-8.22;64.99
67987;BME280;54767;53.800;15.956;2022-12-18T06:30:11;102065.23;;;-8.22;65.09
67987;BME280;54767;53.800;15.956;2022-12-18T06:32:38;102075.21;;;-8.22;64.94
67987;BME280;54767;53.800;15.956;2022-12-18T06:35:06;102078.59;;;-8.24;64.92
67987;BME280;54767;53.800;15.956;2022-12-18T06:37:33;102081.59;;;-8.24;64.92
67987;BME280;54767;53.800;15.956;2022-12-18T06:39:59;102087.20;;;-8.29;64.72
67987;BME280;54767;53.800;15.956;2022-12-18T06:42:28;102094.09;;;-8.33;64.68
67987;BME280;54767;53.800;15.956;2022-12-18T06:44:55;102098.16;;;-8.34;64.73
67987;BME280;54767;53.800;15.956;2022-12-18T06:47:22;102098.58;;;-8.35;64.76
67987;BME280;54767;53.800;15.956;2022-12-18T06:49:48;102099.09;;;-8.38;64.73
67987;BME280;54767;53.800;15.956;2022-12-18T06:52:15;102102.90;;;-8.39;64.91
67987;BME280;54767;53.800;15.956;2022-12-18T06:54:43;102111.73;;;-8.39;64.90
67987;BME280;54767;53.800;15.956;2022-12-18T06:57:10;102124.41;;;-8.40;64.96
67987;BME280;54767;53.800;15.956;2022-12-18T06:59:36;102127.16;;;-8.42;64.75
67987;BME280;54767;53.800;15.956;2022-12-18T07:02:03;102125.61;;;-8.43;64.88
67987;BME280;54767;53.800;15.956;2022-12-18T07:04:31;102132.86;;;-8.44;64.83
67987;BME280;54767;53.800;15.956;2022-12-18T07:06:58;102136.16;;;-8.43;64.87
67987;BME280;54767;53.800;15.956;2022-12-18T07:09:25;102136.38;;;-8.43;64.76
67987;BME280;54767;53.800;15.956;2022-12-18T07:11:53;102128.55;;;-8.43;64.92
67987;BME280;54767;53.800;15.956;2022-12-18T07:14:19;102131.52;;;-8.44;64.95
67987;BME280;54767;53.800;15.956;2022-12-18T07:16:47;102134.92;;;-8.44;64.90
67987;BME280;54767;53.800;15.956;2022-12-18T07:19:14;102132.39;;;-8.44;64.89
67987;BME280;54767;53.800;15.956;2022-12-18T07:21:41;102126.69;;;-8.43;64.98
67987;BME280;54767;53.800;15.956;2022-12-18T07:24:08;102121.98;;;-8.45;64.73
67987;BME280;54767;53.800;15.956;2022-12-18T07:26:35;102129.50;;;-8.50;64.63
67987;BME280;54767;53.800;15.956;2022-12-18T07:29:01;102129.23;;;-8.52;64.92
67987;BME280;54767;53.800;15.956;2022-12-18T07:31:28;102125.73;;;-8.54;64.96
67987;BME280;54767;53.800;15.956;2022-12-18T07:33:55;102125.97;;;-8.56;64.89
67987;BME280;54767;53.800;15.956;2022-12-18T07:36:22;102128.81;;;-8.56;65.05
67987;BME280;54767;53.800;15.956;2022-12-18T07:38:49;102135.95;;;-8.57;65.08
67987;BME280;54767;53.800;15.956;2022-12-18T07:41:18;102135.05;;;-8.56;65.19
67987;BME280;54767;53.800;15.956;2022-12-18T07:43:46;102131.99;;;-8.55;65.27
67987;BME280;54767;53.800;15.956;2022-12-18T07:46:14;102129.70;;;-8.54;65.32
67987;BME280;54767;53.800;15.956;2022-12-18T07:48:42;102130.63;;;-8.52;65.39
67987;BME280;54767;53.800;15.956;2022-12-18T07:51:12;102128.30;;;-8.51;65.37
67987;BME280;54767;53.800;15.956;2022-12-18T07:53:40;102127.15;;;-8.50;65.21
67987;BME280;54767;53.800;15.956;2022-12-18T07:56:10;102128.89;;;-8.51;65.45
67987;BME280;54767;53.800;15.956;2022-12-18T07:58:55;102127.88;;;-8.51;65.50
67987;BME280;54767;53.800;15.956;2022-12-18T08:01:23;102126.09;;;-8.50;65.34
67987;BME280;54767;53.800;15.956;2022-12-18T08:03:50;102125.80;;;-8.49;65.53
67987;BME280;54767;53.800;15.956;2022-12-18T08:06:18;102128.60;;;-8.47;65.42
67987;BME280;54767;53.800;15.956;2022-12-18T08:08:48;102140.02;;;-8.47;65.50
67987;BME280;54767;53.800;15.956;2022-12-18T08:11:16;102145.48;;;-8.48;65.42
67987;BME280;54767;53.800;15.956;2022-12-18T08:13:43;102153.64;;;-8.48;65.48
67987;BME280;54767;53.800;15.956;2022-12-18T08:16:10;102160.00;;;-8.47;65.48
67987;BME280;54767;53.800;15.956;2022-12-18T08:18:37;102155.79;;;-8.48;65.49
67987;BME280;54767;53.800;15.956;2022-12-18T08:21:11;102152.73;;;-8.48;65.49
67987;BME280;54767;53.800;15.956;2022-12-18T08:23:39;102150.30;;;-8.49;65.54
67987;BME280;54767;53.800;15.956;2022-12-18T08:26:11;102160.89;;;-8.47;65.60
67987;BME280;54767;53.800;15.956;2022-12-18T08:28:38;102154.58;;;-8.43;65.62
67987;BME280;54767;53.800;15.956;2022-12-18T08:31:06;102151.23;;;-8.40;65.62
67987;BME280;54767;53.800;15.956;2022-12-18T08:33:35;102141.99;;;-8.37;65.71
67987;BME280;54767;53.800;15.956;2022-12-18T08:36:04;102137.10;;;-8.37;65.77
67987;BME280;54767;53.800;15.956;2022-12-18T08:38:32;102134.65;;;-8.37;65.75
67987;BME280;54767;53.800;15.956;2022-12-18T08:41:04;102137.29;;;-8.38;65.80
67987;BME280;54767;53.800;15.956;2022-12-18T08:43:31;102136.02;;;-8.43;65.84
67987;BME280;54767;53.800;15.956;2022-12-18T08:46:17;102135.86;;;-8.49;65.89
67987;BME280;54767;53.800;15.956;2022-12-18T08:48:45;102132.80;;;-8.52;66.13
67987;BME280;54767;53.800;15.956;2022-12-18T08:51:12;102137.83;;;-8.53;66.20
67987;BME280;54767;53.800;15.956;2022-12-18T08:53:39;102138.20;;;-8.52;66.45
67987;BME280;54767;53.800;15.956;2022-12-18T08:56:07;102141.18;;;-8.53;66.47
67987;BME280;54767;53.800;15.956;2022-12-18T08:58:34;102150.16;;;-8.52;66.74
67987;BME280;54767;53.800;15.956;2022-12-18T09:01:05;102156.38;;;-8.49;66.85
67987;BME280;54767;53.800;15.956;2022-12-18T09:03:33;102159.65;;;-8.46;67.01
67987;BME280;54767;53.800;15.956;2022-12-18T09:06:01;102158.62;;;-8.41;66.92
67987;BME280;54767;53.800;15.956;2022-12-18T09:08:28;102162.60;;;-8.35;67.04
67987;BME280;54767;53.800;15.956;2022-12-18T09:10:55;102165.35;;;-8.30;67.12
67987;BME280;54767;53.800;15.956;2022-12-18T09:13:22;102166.13;;;-8.25;67.24
67987;BME280;54767;53.800;15.956;2022-12-18T09:15:53;102166.78;;;-8.18;67.08
67987;BME280;54767;53.800;15.956;2022-12-18T09:18:22;102171.73;;;-8.12;67.12
67987;BME280;54767;53.800;15.956;2022-12-18T09:20:50;102167.20;;;-8.07;67.00
67987;BME280;54767;53.800;15.956;2022-12-18T09:23:19;102169.27;;;-8.02;66.95
67987;BME280;54767;53.800;15.956;2022-12-18T09:25:46;102171.21;;;-7.96;66.96
67987;BME280;54767;53.800;15.956;2022-12-18T09:28:14;102170.56;;;-7.94;66.87
67987;BME280;54767;53.800;15.956;2022-12-18T09:30:47;102172.89;;;-7.90;67.12
67987;BME280;54767;53.800;15.956;2022-12-18T09:33:15;102161.83;;;-7.85;67.13
67987;BME280;54767;53.800;15.956;2022-12-18T09:35:44;102153.76;;;-7.83;66.94
67987;BME280;54767;53.800;15.956;2022-12-18T09:38:18;102142.33;;;-7.83;67.03
67987;BME280;54767;53.800;15.956;2022-12-18T09:40:53;102143.95;;;-7.82;66.99
67987;BME280;54767;53.800;15.956;2022-12-18T09:43:48;102139.73;;;-7.80;67.11
67987;BME280;54767;53.800;15.956;2022-12-18T09:46:38;102141.60;;;-7.79;67.21
67987;BME280;54767;53.800;15.956;2022-12-18T09:49:12;102145.83;;;-7.82;67.43
67987;BME280;54767;53.800;15.956;2022-12-18T09:51:48;102141.73;;;-7.82;67.62
67987;BME280;54767;53.800;15.956;2022-12-18T09:54:38;102142.28;;;-7.80;67.80
67987;BME280;54767;53.800;15.956;2022-12-18T09:57:06;102149.31;;;-7.75;68.10
67987;BME280;54767;53.800;15.956;2022-12-18T09:59:38;102151.02;;;-7.68;68.33
67987;BME280;54767;53.800;15.956;2022-12-18T10:02:23;102139.11;;;-7.62;68.26
67987;BME280;54767;53.800;15.956;2022-12-18T10:05:13;102130.80;;;-7.51;68.55
67987;BME280;54767;53.800;15.956;2022-12-18T10:08:49;102134.41;;;-7.37;68.96
67987;BME280;54767;53.800;15.956;2022-12-18T10:10:51;102145.91;;;-7.23;68.94
67987;BME280;54767;53.800;15.956;2022-12-18T10:13:36;102149.77;;;-7.12;69.22
67987;BME280;54767;53.800;15.956;2022-12-18T10:24:44;102175.66;;;-6.93;69.13
67987;BME280;54767;53.800;15.956;2022-12-18T10:27:17;102182.67;;;-6.87;69.00
67987;BME280;54767;53.800;15.956;2022-12-18T10:29:45;102179.31;;;-6.82;69.07
67987;BME280;54767;53.800;15.956;2022-12-18T10:32:22;102181.69;;;-6.74;69.11
67987;BME280;54767;53.800;15.956;2022-12-18T10:34:50;102188.60;;;-6.72;68.96
67987;BME280;54767;53.800;15.956;2022-12-18T10:37:28;102190.69;;;-6.71;69.03
67987;BME280;54767;53.800;15.956;2022-12-18T10:40:24;102188.69;;;-6.69;69.01
67987;BME280;54767;53.800;15.956;2022-12-18T10:43:11;102185.09;;;-6.64;69.10
67987;BME280;54767;53.800;15.956;2022-12-18T10:45:39;102183.30;;;-6.60;69.21
67987;BME280;54767;53.800;15.956;2022-12-18T10:48:22;102181.66;;;-6.57;69.15
67987;BME280;54767;53.800;15.956;2022-12-18T10:50:50;102182.22;;;-6.57;69.17
67987;BME280;54767;53.800;15.956;2022-12-18T10:53:40;102179.79;;;-6.56;69.41
67987;BME280;54767;53.800;15.956;2022-12-18T10:56:08;102179.00;;;-6.56;69.50
67987;BME280;54767;53.800;15.956;2022-12-18T10:58:38;102175.88;;;-6.53;69.49
67987;BME280;54767;53.800;15.956;2022-12-18T11:01:13;102172.19;;;-6.50;69.44
67987;BME280;54767;53.800;15.956;2022-12-18T11:03:44;102165.13;;;-6.53;69.53
67987;BME280;54767;53.800;15.956;2022-12-18T11:06:17;102159.63;;;-6.52;69.81
67987;BME280;54767;53.800;15.956;2022-12-18T11:08:59;102152.81;;;-6.48;69.74
67987;BME280;54767;53.800;15.956;2022-12-18T11:11:28;102153.40;;;-6.49;69.68
67987;BME280;54767;53.800;15.956;2022-12-18T11:16:32;102143.86;;;-6.59;70.07
67987;BME280;54767;53.800;15.956;2022-12-18T11:19:19;102156.88;;;-6.54;70.20
67987;BME280;54767;53.800;15.956;2022-12-18T11:21:48;102148.40;;;-6.51;70.26
67987;BME280;54767;53.800;15.956;2022-12-18T11:24:37;102149.38;;;-6.50;70.35
67987;BME280;54767;53.800;15.956;2022-12-18T11:27:06;102153.67;;;-6.48;70.48
67987;BME280;54767;53.800;15.956;2022-12-18T11:29:42;102162.22;;;-6.46;70.47
67987;BME280;54767;53.800;15.956;2022-12-18T11:32:37;102172.02;;;-6.44;70.53
67987;BME280;54767;53.800;15.956;2022-12-18T11:35:17;102185.56;;;-6.41;70.69
67987;BME280;54767;53.800;15.956;2022-12-18T11:37:53;102184.14;;;-6.37;70.58
67987;BME280;54767;53.800;15.956;2022-12-18T11:40:33;102178.11;;;-6.32;70.83
67987;BME280;54767;53.800;15.956;2022-12-18T11:44:07;102181.95;;;-6.28;70.94
67987;BME280;54767;53.800;15.956;2022-12-18T11:47:05;102180.77;;;-6.25;70.96
67987;BME280;54767;53.800;15.956;2022-12-18T11:49:40;102175.23;;;-6.22;71.02
67987;BME280;54767;53.800;15.956;2022-12-18T11:52:20;102162.65;;;-6.20;70.98
67987;BME280;54767;53.800;15.956;2022-12-18T11:54:51;102158.94;;;-6.18;70.93
67987;BME280;54767;53.800;15.956;2022-12-18T11:57:34;102152.41;;;-6.18;70.99
67987;BME280;54767;53.800;15.956;2022-12-18T12:00:47;102148.97;;;-6.17;71.08
67987;BME280;54767;53.800;15.956;2022-12-18T12:22:55;102124.80;;;-5.55;71.34
67987;BME280;54767;53.800;15.956;2022-12-18T12:25:37;102109.52;;;-5.44;71.32
67987;BME280;54767;53.800;15.956;2022-12-18T12:36:42;102099.25;;;-5.30;71.01
67987;BME280;54767;53.800;15.956;2022-12-18T12:39:18;102100.13;;;-5.33;71.07
67987;BME280;54767;53.800;15.956;2022-12-18T12:41:50;102098.40;;;-5.37;71.01
67987;BME280;54767;53.800;15.956;2022-12-18T12:44:46;102095.88;;;-5.42;70.92
67987;BME280;54767;53.800;15.956;2022-12-18T12:47:37;102098.64;;;-5.41;70.90
67987;BME280;54767;53.800;15.956;2022-12-18T12:50:16;102096.69;;;-5.44;70.83
67987;BME280;54767;53.800;15.956;2022-12-18T12:52:47;102094.90;;;-5.47;70.74
67987;BME280;54767;53.800;15.956;2022-12-18T12:55:28;102097.45;;;-5.50;71.02
67987;BME280;54767;53.800;15.956;2022-12-18T13:04:08;102093.45;;;-5.67;71.27
67987;BME280;54767;53.800;15.956;2022-12-18T13:06:47;102103.16;;;-5.73;71.08
67987;BME280;54767;53.800;15.956;2022-12-18T13:09:17;102104.14;;;-5.78;71.18
67987;BME280;54767;53.800;15.956;2022-12-18T13:11:46;102109.59;;;-5.85;71.19
67987;BME280;54767;53.800;15.956;2022-12-18T13:14:36;102117.81;;;-5.90;71.30
67987;BME280;54767;53.800;15.956;2022-12-18T13:17:27;102126.63;;;-5.93;71.32
67987;BME280;54767;53.800;15.956;2022-12-18T13:20:07;102138.22;;;-5.93;71.32
67987;BME280;54767;53.800;15.956;2022-12-18T13:22:38;102144.05;;;-5.92;71.48
67987;BME280;54767;53.800;15.956;2022-12-18T13:25:41;102153.66;;;-5.95;71.24
67987;BME280;54767;53.800;15.956;2022-12-18T13:28:15;102157.02;;;-6.00;71.35
67987;BME280;54767;53.800;15.956;2022-12-18T13:38:36;102140.09;;;-6.26;71.58
67987;BME280;54767;53.800;15.956;2022-12-18T13:43:51;102146.85;;;-6.37;71.72
67987;BME280;54767;53.800;15.956;2022-12-18T13:46:29;102154.96;;;-6.39;71.89
67987;BME280;54767;53.800;15.956;2022-12-18T13:51:31;102167.19;;;-6.44;72.01
67987;BME280;54767;53.800;15.956;2022-12-18T13:54:06;102169.98;;;-6.47;72.21
67987;BME280;54767;53.800;15.956;2022-12-18T13:56:44;102183.27;;;-6.50;72.15
67987;BME280;54767;53.800;15.956;2022-12-18T13:59:25;102185.50;;;-6.54;72.45
67987;BME280;54767;53.800;15.956;2022-12-18T14:01:58;102188.55;;;-6.55;72.51
67987;BME280;54767;53.800;15.956;2022-12-18T14:04:34;102192.19;;;-6.55;72.60
67987;BME280;54767;53.800;15.956;2022-12-18T14:09:35;102206.35;;;-6.53;72.60
67987;BME280;54767;53.800;15.956;2022-12-18T14:12:03;102211.55;;;-6.54;72.78
67987;BME280;54767;53.800;15.956;2022-12-18T14:14:52;102220.88;;;-6.59;72.77
67987;BME280;54767;53.800;15.956;2022-12-18T14:17:22;102226.88;;;-6.65;72.92
67987;BME280;54767;53.800;15.956;2022-12-18T14:19:50;102229.26;;;-6.67;73.06
67987;BME280;54767;53.800;15.956;2022-12-18T14:22:21;102228.77;;;-6.65;73.15
67987;BME280;54767;53.800;15.956;2022-12-18T14:25:26;102232.84;;;-6.64;73.17
67987;BME280;54767;53.800;15.956;2022-12-18T14:27:52;102229.54;;;-6.65;73.33
67987;BME280;54767;53.800;15.956;2022-12-18T14:30:45;102217.75;;;-6.66;73.36
67987;BME280;54767;53.800;15.956;2022-12-18T14:33:20;102204.88;;;-6.71;73.47